Time;durP1;ratioP1;P1;durP2;ratioP2;P2;SDS_P1;SDS_P2;PMS_P1;PMS_P2;Temp;Humidity;BMP_temperature;BMP_pressure;BME280_temperature;BME280_humidity;BME280_pressure;Samples;Min_cycle;Max_cycle;Signal;HPM_P1;HPM_P2
2023/10/14 00:01:13;;;;;;;21.03;5.80;;;;;;;18.78;54.63;99866.31;5052576;28;20231;-64
2023/10/14 00:03:42;;;;;;;8.37;5.70;;;;;;;18.80;54.38;99863.38;5052252;28;20194;-65
2023/10/14 00:06:11;;;;;;;8.40;6.03;;;;;;;18.76;54.14;99862.22;5052244;28;20266;-65
2023/10/14 00:08:47;;;;;;;9.50;5.87;;;;;;;18.72;54.13;99867.28;5052253;28;20197;-65
2023/10/14 00:11:15;;;;;;;8.77;5.93;;;;;;;18.66;55.23;99868.22;5052603;28;20215;-65
2023/10/14 00:13:42;;;;;;;12.17;5.50;;;;;;;18.66;55.11;99868.22;5052179;28;20212;-64
2023/10/14 00:16:29;;;;;;;12.23;6.07;;;;;;;18.64;55.08;99861.47;5052552;28;20201;-65
2023/10/14 00:18:57;;;;;;;11.23;5.83;;;;;;;18.61;55.27;99856.53;5052469;28;20189;-65
2023/10/14 00:21:24;;;;;;;13.20;6.63;;;;;;;18.62;55.55;99858.19;5052043;28;20230;-64
2023/10/14 00:23:55;;;;;;;13.20;7.37;;;;;;;18.61;56.02;99845.78;5052060;28;20245;-65
2023/10/14 00:26:23;;;;;;;6.90;5.63;;;;;;;18.63;55.53;99846.38;5052099;28;20242;-64
2023/10/14 00:28:54;;;;;;;12.60;6.77;;;;;;;18.59;55.06;99837.16;5052035;28;20283;-64
2023/10/14 00:31:23;;;;;;;13.83;6.60;;;;;;;18.50;55.25;99841.28;5052038;28;20778;-65
2023/10/14 00:33:52;;;;;;;11.47;6.83;;;;;;;18.45;55.74;99833.91;5052383;28;20231;-64
2023/10/14 00:36:20;;;;;;;10.87;6.87;;;;;;;18.43;56.05;99836.03;5051828;28;20234;-64
2023/10/14 00:38:55;;;;;;;11.30;6.97;;;;;;;18.45;56.71;99838.47;5051728;28;20193;-64
2023/10/14 00:41:25;;;;;;;6.73;6.03;;;;;;;18.42;56.63;99834.38;5052191;28;20324;-66
2023/10/14 00:43:52;;;;;;;13.93;6.63;;;;;;;18.39;56.24;99831.34;5051741;28;20239;-66
2023/10/14 00:46:22;;;;;;;12.17;6.53;;;;;;;18.27;57.04;99825.16;5052056;28;20283;-65
2023/10/14 00:48:58;;;;;;;17.57;7.00;;;;;;;18.22;56.64;99820.47;5068669;28;20273;-65
2023/10/14 00:51:26;;;;;;;14.27;8.47;;;;;;;18.19;56.53;99817.44;5072226;28;20233;-64
2023/10/14 00:53:55;;;;;;;12.10;7.80;;;;;;;18.20;56.19;99819.06;5071969;28;20198;-65
2023/10/14 00:56:27;;;;;;;13.60;8.10;;;;;;;18.20;56.15;99811.00;5070568;28;20229;-64
2023/10/14 00:58:58;;;;;;;12.50;7.63;;;;;;;18.18;56.00;99805.06;5051980;28;20190;-64
2023/10/14 01:01:28;;;;;;;9.37;8.00;;;;;;;18.13;56.12;99799.59;5051319;28;20551;-64
2023/10/14 01:04:08;;;;;;;11.43;7.87;;;;;;;18.14;56.01;99803.91;5051468;28;20652;-66
2023/10/14 01:06:47;;;;;;;15.43;7.83;;;;;;;18.10;55.86;99797.38;5051385;28;20238;-66
2023/10/14 01:09:17;;;;;;;10.37;7.20;;;;;;;18.06;56.17;99802.41;5051541;28;20191;-66
2023/10/14 01:11:44;;;;;;;10.53;8.03;;;;;;;18.04;56.40;99799.13;5051717;28;20228;-65
2023/10/14 01:14:14;;;;;;;16.70;8.10;;;;;;;18.02;56.36;99805.78;5051609;28;20624;-65
2023/10/14 01:16:41;;;;;;;12.77;7.40;;;;;;;17.98;56.83;99788.50;5051657;28;20221;-65
2023/10/14 01:19:15;;;;;;;8.77;7.13;;;;;;;17.96;57.04;99790.59;5051303;28;20288;-65
2023/10/14 01:21:43;;;;;;;12.37;7.13;;;;;;;17.89;57.37;99787.25;5051742;28;20228;-65
2023/10/14 01:24:16;;;;;;;13.67;7.00;;;;;;;17.88;57.80;99785.59;5051255;28;20243;-66
2023/10/14 01:26:51;;;;;;;8.57;6.73;;;;;;;17.85;58.07;99783.38;5051941;28;20227;-66
2023/10/14 01:29:25;;;;;;;8.20;6.73;;;;;;;17.85;57.91;99786.06;5051265;28;20652;-66
2023/10/14 01:32:10;;;;;;;10.90;6.90;;;;;;;17.81;58.02;99780.34;5051622;28;20215;-66
2023/10/14 01:34:42;;;;;;;9.07;6.60;;;;;;;17.74;57.85;99776.16;5051435;28;20247;-65
2023/10/14 01:37:18;;;;;;;9.63;6.40;;;;;;;17.74;58.20;99776.97;5051798;28;20212;-65
2023/10/14 01:39:56;;;;;;;8.60;6.83;;;;;;;17.71;58.30;99772.06;5051523;28;20185;-65
2023/10/14 01:42:23;;;;;;;7.70;6.00;;;;;;;17.68;58.47;99777.09;5051206;28;20191;-66
2023/10/14 01:44:53;;;;;;;9.10;6.33;;;;;;;17.66;58.68;99776.50;5050298;28;20225;-65
2023/10/14 01:47:20;;;;;;;8.00;6.17;;;;;;;17.61;58.41;99771.84;5056064;28;20672;-65
2023/10/14 01:49:47;;;;;;;7.67;6.13;;;;;;;17.63;58.77;99790.38;5074639;28;20211;-65
2023/10/14 01:52:19;;;;;;;7.10;6.57;;;;;;;17.61;58.92;99787.97;5075269;28;20196;-65
2023/10/14 01:54:48;;;;;;;11.60;5.67;;;;;;;17.63;58.81;99793.91;5074994;28;20232;-64
2023/10/14 01:57:17;;;;;;;6.20;5.60;;;;;;;17.58;58.32;99783.06;5075008;28;20615;-65
2023/10/14 01:59:46;;;;;;;9.20;6.27;;;;;;;17.58;58.55;99792.97;5074991;28;20203;-64
2023/10/14 02:02:19;;;;;;;10.83;5.27;;;;;;;17.58;58.61;99787.59;5074755;28;20290;-64
2023/10/14 02:04:46;;;;;;;8.07;5.00;;;;;;;17.58;58.44;99787.59;5074905;28;20180;-64
2023/10/14 02:07:19;;;;;;;6.60;4.83;;;;;;;17.56;58.37;99785.13;5074739;28;20379;-64
2023/10/14 02:09:48;;;;;;;7.47;4.80;;;;;;;17.55;58.24;99782.69;5074697;28;20184;-64
2023/10/14 02:12:15;;;;;;;4.23;3.93;;;;;;;17.54;58.27;99783.75;5074934;28;20194;-64
2023/10/14 02:14:44;;;;;;;5.43;4.60;;;;;;;17.51;58.26;99781.53;5074809;28;20188;-64
2023/10/14 02:17:11;;;;;;;7.53;5.00;;;;;;;17.43;58.40;99780.00;5074884;28;20615;-64
2023/10/14 02:19:38;;;;;;;7.97;5.23;;;;;;;17.29;58.67;99777.75;5074395;28;20188;-64
2023/10/14 02:22:09;;;;;;;8.37;4.40;;;;;;;17.12;58.77;99771.41;5074390;28;20273;-65
2023/10/14 02:24:36;;;;;;;7.97;5.03;;;;;;;16.99;59.35;99772.44;5074653;28;20635;-65
2023/10/14 02:27:11;;;;;;;9.17;5.07;;;;;;;16.88;59.87;99775.94;5074388;28;20666;-65
2023/10/14 02:29:42;;;;;;;8.83;5.00;;;;;;;16.81;61.00;99769.84;5074598;28;20187;-64
2023/10/14 02:32:11;;;;;;;10.13;5.03;;;;;;;16.67;60.73;99767.56;5074284;28;20245;-65
2023/10/14 02:34:38;;;;;;;5.23;4.63;;;;;;;16.55;60.97;99764.88;5074452;28;20283;-64
2023/10/14 02:37:06;;;;;;;5.47;4.17;;;;;;;16.45;61.17;99764.56;5074506;28;20191;-66
2023/10/14 02:39:34;;;;;;;7.33;4.67;;;;;;;16.37;61.75;99762.19;5073989;28;20570;-65
2023/10/14 02:42:06;;;;;;;7.47;4.47;;;;;;;16.40;62.26;99767.09;5073992;28;20219;-65
2023/10/14 02:44:44;;;;;;;7.97;5.00;;;;;;;16.42;61.41;99764.22;5074393;28;20184;-65
2023/10/14 02:47:11;;;;;;;8.43;5.23;;;;;;;16.36;61.80;99762.41;5070589;28;20571;-66
2023/10/14 02:49:39;;;;;;;5.87;4.33;;;;;;;16.39;63.07;99764.63;5053818;28;20196;-65
2023/10/14 02:52:11;;;;;;;6.33;5.30;;;;;;;16.44;61.53;99767.47;5053813;28;20579;-66
2023/10/14 02:54:40;;;;;;;4.53;4.13;;;;;;;16.46;61.78;99768.09;5053792;28;20192;-65
2023/10/14 02:57:14;;;;;;;5.30;4.50;;;;;;;16.55;61.86;99772.06;5054103;28;20629;-65
2023/10/14 02:59:47;;;;;;;8.47;4.50;;;;;;;16.62;61.54;99775.50;5053663;28;20188;-65
2023/10/14 03:02:16;;;;;;;5.30;4.33;;;;;;;16.68;61.61;99779.94;5053945;28;20284;-65
2023/10/14 03:04:49;;;;;;;6.43;4.70;;;;;;;16.74;61.39;99779.84;5053655;28;20210;-65
2023/10/14 03:07:23;;;;;;;5.17;3.93;;;;;;;16.85;62.25;99770.19;5054004;28;20221;-65
2023/10/14 03:09:50;;;;;;;5.97;4.43;;;;;;;16.90;59.99;99779.19;5054034;28;20195;-65
2023/10/14 03:12:19;;;;;;;4.00;3.70;;;;;;;16.91;60.24;99780.00;5053450;28;20208;-65
2023/10/14 03:14:49;;;;;;;7.47;4.47;;;;;;;16.85;60.13;99784.44;5053771;28;20193;-65
2023/10/14 03:17:24;;;;;;;4.77;4.20;;;;;;;16.84;59.97;99774.75;5053724;28;20228;-64
2023/10/14 03:19:53;;;;;;;6.87;4.67;;;;;;;16.73;60.32;99778.22;5053881;28;20269;-65
2023/10/14 03:22:26;;;;;;;8.57;4.43;;;;;;;16.57;60.87;99778.84;5053172;28;20712;-65
2023/10/14 03:25:02;;;;;;;4.83;4.43;;;;;;;16.63;60.84;99771.75;5053709;28;20191;-65
2023/10/14 03:27:32;;;;;;;6.13;4.60;;;;;;;16.64;60.36;99773.38;5053288;28;20613;-65
2023/10/14 03:30:00;;;;;;;8.17;4.30;;;;;;;16.66;60.75;99776.69;5053438;28;20189;-65
2023/10/14 03:32:32;;;;;;;4.73;4.33;;;;;;;16.65;60.41;99769.69;5053385;28;20220;-65
2023/10/14 03:35:09;;;;;;;5.10;4.47;;;;;;;16.64;60.62;99768.84;5053465;28;20275;-65
2023/10/14 03:37:40;;;;;;;5.13;4.63;;;;;;;16.65;60.78;99765.13;5053070;28;20267;-65
2023/10/14 03:43:05;;;;;;;7.17;4.70;;;;;;;16.63;60.80;99764.53;5049224;28;20192;-65
2023/10/14 03:45:45;;;;;;;8.93;5.47;;;;;;;16.59;61.05;99759.84;5053163;28;20184;-65
2023/10/14 03:48:13;;;;;;;11.33;4.60;;;;;;;16.58;61.13;99763.59;5065017;28;20184;-65
2023/10/14 03:50:40;;;;;;;7.00;5.30;;;;;;;16.58;62.16;99758.22;5072638;28;20573;-65
2023/10/14 03:53:06;;;;;;;9.93;4.63;;;;;;;16.57;61.92;99759.28;5072647;28;20250;-65
2023/10/14 03:55:33;;;;;;;5.40;4.50;;;;;;;16.61;61.26;99769.31;5072744;28;20203;-64
2023/10/14 03:58:03;;;;;;;5.53;5.03;;;;;;;16.61;61.04;99763.94;5073092;28;20296;-64
2023/10/14 04:00:36;;;;;;;8.07;5.37;;;;;;;16.57;60.93;99765.44;5072305;28;20199;-66
2023/10/14 04:03:11;;;;;;;9.10;5.20;;;;;;;16.46;61.72;99760.03;5072955;28;20274;-65
2023/10/14 04:05:39;;;;;;;11.17;5.30;;;;;;;16.41;61.93;99760.72;5072552;28;20229;-65
2023/10/14 04:08:09;;;;;;;6.87;5.00;;;;;;;16.38;62.41;99754.97;5072774;28;20191;-66
2023/10/14 04:10:43;;;;;;;5.70;5.20;;;;;;;16.25;62.02;99757.81;5071553;28;20688;-65
2023/10/14 04:13:13;;;;;;;8.70;5.00;;;;;;;16.25;62.52;99752.47;5072707;28;20268;-66
2023/10/14 04:15:48;;;;;;;6.70;4.83;;;;;;;16.19;63.18;99756.84;5072137;28;20196;-64
2023/10/14 04:18:24;;;;;;;20.13;5.10;;;;;;;16.10;62.53;99762.75;5072685;28;20219;-64
2023/10/14 04:21:03;;;;;;;7.13;5.33;;;;;;;16.07;62.88;99757.81;5072505;28;20211;-65
2023/10/14 04:23:30;;;;;;;7.77;5.43;;;;;;;16.04;62.95;99761.78;5072503;28;20657;-64
2023/10/14 04:26:03;;;;;;;12.03;5.50;;;;;;;15.98;62.95;99763.47;5072446;28;20192;-64
2023/10/14 04:28:31;;;;;;;6.03;5.10;;;;;;;16.05;63.80;99765.28;5072138;28;20628;-64
2023/10/14 04:31:06;;;;;;;12.27;5.43;;;;;;;16.10;63.04;99770.78;5072281;28;20199;-64
2023/10/14 04:33:44;;;;;;;7.90;5.30;;;;;;;15.98;63.90;99751.13;5072025;28;20278;-65
2023/10/14 04:39:07;;;;;;;10.87;6.00;;;;;;;16.14;62.81;99771.97;5072138;28;20179;-65
2023/10/14 04:41:45;;;;;;;13.73;5.90;;;;;;;16.17;62.80;99774.22;5071500;28;20663;-65
2023/10/14 04:44:12;;;;;;;10.63;5.30;;;;;;;16.24;62.58;99766.88;5072162;28;20674;-65
2023/10/14 04:46:54;;;;;;;11.10;5.83;;;;;;;16.24;62.46;99773.06;5071628;28;20253;-65
2023/10/14 04:49:36;;;;;;;15.60;6.07;;;;;;;16.28;62.45;99773.44;5031878;28;20185;-64
2023/10/14 04:52:05;;;;;;;7.77;5.23;;;;;;;16.30;62.38;99776.72;5050135;28;20195;-64
2023/10/14 04:54:34;;;;;;;10.57;6.23;;;;;;;16.32;62.07;99780.81;5060247;28;20200;-65
2023/10/14 04:57:19;;;;;;;15.77;5.73;;;;;;;16.28;62.66;99774.25;5061708;28;20188;-66
2023/10/14 04:59:46;;;;;;;8.40;5.00;;;;;;;16.29;65.73;99780.44;5062165;28;20184;-65
2023/10/14 05:02:20;;;;;;;5.80;4.17;;;;;;;16.92;64.73;99782.47;5059937;28;20212;-64
2023/10/14 05:04:52;;;;;;;7.57;5.10;;;;;;;17.63;61.13;99780.47;5060264;28;20188;-65
2023/10/14 05:07:19;;;;;;;9.23;4.73;;;;;;;18.27;58.44;99787.50;5058738;28;20181;-65
2023/10/14 05:10:07;;;;;;;21.83;7.80;;;;;;;18.85;53.52;99790.81;5060673;28;20282;-69
2023/10/14 05:12:40;;;;;;;18.40;6.53;;;;;;;19.08;53.33;99790.69;5057793;28;20656;-67
2023/10/14 05:15:19;;;;;;;22.83;7.40;;;;;;;19.24;52.77;99789.91;5058004;28;20192;-66
2023/10/14 05:17:49;;;;;;;17.77;6.13;;;;;;;19.17;51.61;99800.00;5055642;28;20199;-67
2023/10/14 05:20:22;;;;;;;12.43;6.60;;;;;;;19.13;52.98;99798.84;5059682;28;20199;-67
2023/10/14 05:22:49;;;;;;;15.57;5.90;;;;;;;19.22;51.16;99797.38;5059737;28;20234;-66
2023/10/14 05:25:27;;;;;;;12.10;5.33;;;;;;;19.35;52.34;99795.22;5065477;28;20203;-66
2023/10/14 05:27:58;;;;;;;10.27;5.77;;;;;;;19.57;51.16;99803.38;5063526;28;20564;-65
2023/10/14 05:30:33;;;;;;;47.30;10.00;;;;;;;19.73;50.77;99799.84;5065025;28;20290;-65
2023/10/14 05:33:06;;;;;;;18.03;6.70;;;;;;;19.80;50.41;99798.59;5061010;28;20238;-65
2023/10/14 05:35:39;;;;;;;18.00;7.10;;;;;;;19.95;50.65;99808.78;5063286;28;20188;-65
2023/10/14 05:38:09;;;;;;;22.20;6.13;;;;;;;20.10;50.43;99806.31;5063371;28;20271;-65
2023/10/14 05:40:38;;;;;;;13.50;5.40;;;;;;;20.24;49.27;99807.56;5062928;28;20272;-66
2023/10/14 05:43:06;;;;;;;16.83;6.47;;;;;;;20.47;48.11;99812.72;5061708;28;20216;-65
2023/10/14 05:45:34;;;;;;;23.97;6.40;;;;;;;20.72;47.80;99812.19;5064884;28;20686;-65
2023/10/14 05:48:03;;;;;;;20.13;6.57;;;;;;;20.91;47.59;99808.06;5061494;28;20189;-65
2023/10/14 05:50:30;;;;;;;9.93;5.40;;;;;;;21.26;46.12;99822.75;5054293;28;20197;-64
2023/10/14 05:52:59;;;;;;;11.80;5.67;;;;;;;21.47;45.52;99813.75;5054778;28;20200;-66
2023/10/14 05:55:29;;;;;;;10.57;5.53;;;;;;;21.77;44.56;99824.81;5054260;28;20192;-65
2023/10/14 05:57:58;;;;;;;14.03;6.53;;;;;;;22.00;44.07;99827.13;5054260;28;20656;-66
2023/10/14 06:00:25;;;;;;;22.77;7.93;;;;;;;22.17;43.33;99829.66;5054224;28;20207;-65
2023/10/14 06:02:53;;;;;;;33.03;6.97;;;;;;;22.39;43.19;99827.59;5053955;28;20213;-64
2023/10/14 06:05:23;;;;;;;12.93;5.50;;;;;;;22.72;42.48;99828.03;5054357;28;20286;-64
2023/10/14 06:07:59;;;;;;;17.07;5.80;;;;;;;23.14;41.64;99828.66;5053991;28;20221;-64
2023/10/14 06:10:31;;;;;;;8.17;5.43;;;;;;;23.51;40.24;99826.53;5060703;28;20212;-66
2023/10/14 06:12:58;;;;;;;10.77;5.13;;;;;;;23.80;38.84;99824.03;5065990;28;20194;-66
2023/10/14 06:15:25;;;;;;;30.17;5.93;;;;;;;24.15;40.41;99816.69;5070859;28;20205;-67
2023/10/14 06:17:54;;;;;;;20.63;5.70;;;;;;;24.39;39.08;99806.78;5067817;28;20191;-66
2023/10/14 06:20:22;;;;;;;9.20;5.03;;;;;;;24.76;37.63;99819.97;5074365;28;20226;-66
2023/10/14 06:22:50;;;;;;;11.13;4.90;;;;;;;25.02;36.49;99820.66;5061501;28;20227;-67
2023/10/14 06:25:17;;;;;;;15.50;5.40;;;;;;;25.25;36.41;99822.63;5044284;28;20695;-67
2023/10/14 06:27:49;;;;;;;10.43;5.03;;;;;;;25.40;35.69;99823.38;5052821;28;20726;-68
2023/10/14 06:30:19;;;;;;;15.93;5.80;;;;;;;25.56;35.15;99822.13;5038762;28;20556;-67
2023/10/14 06:32:47;;;;;;;12.00;5.27;;;;;;;25.65;35.02;99831.34;5034518;28;20267;-67
2023/10/14 06:35:14;;;;;;;9.27;4.70;;;;;;;25.75;34.71;99824.97;5033279;28;20296;-66
2023/10/14 06:37:43;;;;;;;11.40;4.67;;;;;;;25.84;34.32;99821.34;5032681;28;20202;-67
2023/10/14 06:40:12;;;;;;;15.13;4.60;;;;;;;25.77;33.69;99828.22;5032857;28;20198;-67
2023/10/14 06:42:40;;;;;;;8.23;4.43;;;;;;;25.41;35.53;99814.13;5033695;28;20225;-67
2023/10/14 06:45:09;;;;;;;12.77;5.37;;;;;;;25.56;35.24;99811.25;5034206;28;20251;-66
2023/10/14 06:47:36;;;;;;;14.47;4.60;;;;;;;25.79;34.68;99815.13;5046092;28;20184;-65
2023/10/14 06:50:03;;;;;;;10.90;4.70;;;;;;;26.06;34.65;99818.16;5071661;28;20729;-66
2023/10/14 06:52:30;;;;;;;18.90;4.87;;;;;;;26.26;34.49;99820.66;5072998;28;20196;-67
2023/10/14 06:54:59;;;;;;;4.90;4.20;;;;;;;26.47;33.37;99819.31;5073741;28;20291;-67
2023/10/14 06:57:26;;;;;;;4.93;4.00;;;;;;;26.67;33.00;99817.16;5073639;28;20274;-67
2023/10/14 06:59:56;;;;;;;25.10;5.73;;;;;;;26.88;32.70;99817.69;5073742;28;20202;-68
2023/10/14 07:02:24;;;;;;;7.27;3.73;;;;;;;26.99;32.93;99805.53;5073712;28;20261;-67
2023/10/14 07:04:52;;;;;;;15.33;5.13;;;;;;;27.16;32.29;99811.28;5073774;28;20208;-68
2023/10/14 07:07:22;;;;;;;8.77;4.53;;;;;;;27.34;31.99;99808.53;5073438;28;20211;-67
2023/10/14 07:09:48;;;;;;;9.23;4.07;;;;;;;27.49;31.51;99808.31;5073516;28;20200;-67
2023/10/14 07:12:15;;;;;;;7.33;4.37;;;;;;;27.68;31.20;99805.53;5073251;28;20196;-67
2023/10/14 07:14:46;;;;;;;7.43;4.07;;;;;;;27.55;31.48;99803.53;5073283;28;20655;-68
2023/10/14 07:17:17;;;;;;;7.33;4.30;;;;;;;27.56;31.26;99807.91;5073316;28;20200;-67
2023/10/14 07:19:47;;;;;;;7.27;4.27;;;;;;;27.43;30.83;99808.66;5073631;28;20192;-67
2023/10/14 07:22:15;;;;;;;6.47;3.80;;;;;;;27.54;30.96;99805.47;5072983;28;20216;-68
2023/10/14 07:24:42;;;;;;;13.10;4.00;;;;;;;27.74;30.37;99801.56;5073636;28;20254;-68
2023/10/14 07:27:09;;;;;;;5.80;3.97;;;;;;;27.61;30.15;99799.63;5072912;28;20286;-68
2023/10/14 07:29:39;;;;;;;7.63;3.77;;;;;;;27.44;30.50;99799.38;5073084;28;20206;-69
2023/10/14 07:32:06;;;;;;;7.93;3.80;;;;;;;27.34;30.84;99796.81;5073205;28;20192;-68
2023/10/14 07:34:32;;;;;;;8.53;4.00;;;;;;;27.13;31.12;99796.31;5073136;28;20192;-67
2023/10/14 07:37:01;;;;;;;16.17;4.63;;;;;;;27.18;31.44;99792.66;5072771;28;20732;-69
2023/10/14 07:39:28;;;;;;;10.73;4.07;;;;;;;27.19;30.84;99791.59;5072994;28;20257;-69
2023/10/14 07:41:55;;;;;;;9.53;3.70;;;;;;;27.26;31.44;99792.84;5072457;28;20675;-68
2023/10/14 07:44:24;;;;;;;8.67;4.20;;;;;;;27.61;31.23;99788.72;5072637;28;20689;-68
2023/10/14 07:46:50;;;;;;;6.27;4.17;;;;;;;27.94;29.99;99790.31;5071309;28;20220;-68
2023/10/14 07:49:17;;;;;;;8.80;4.17;;;;;;;27.63;30.26;99781.03;5052695;28;20270;-67
2023/10/14 07:51:44;;;;;;;12.03;4.33;;;;;;;27.59;30.41;99786.28;5052687;28;20196;-69
2023/10/14 07:54:12;;;;;;;14.33;3.70;;;;;;;27.79;30.30;99774.16;5052251;28;20632;-68
2023/10/14 07:56:39;;;;;;;5.57;3.93;;;;;;;27.88;30.54;99769.66;5051370;28;20279;-68
2023/10/14 07:59:08;;;;;;;6.63;3.60;;;;;;;28.03;30.17;99780.31;5052541;28;20196;-68
2023/10/14 08:01:38;;;;;;;9.00;3.80;;;;;;;28.27;29.75;99772.72;5052284;28;20193;-68
2023/10/14 08:04:07;;;;;;;12.60;4.10;;;;;;;28.53;29.72;99768.34;5052538;28;20197;-69
2023/10/14 08:06:35;;;;;;;4.10;3.70;;;;;;;28.74;29.00;99769.50;5052722;28;20316;-69
2023/10/14 08:09:04;;;;;;;4.23;3.43;;;;;;;28.60;28.74;99768.75;5051981;28;20193;-68
2023/10/14 08:11:37;;;;;;;8.33;3.63;;;;;;;28.63;28.81;99763.47;5051972;28;20675;-68
2023/10/14 08:14:06;;;;;;;12.90;4.20;;;;;;;28.77;28.88;99760.69;5052331;28;20272;-67
2023/10/14 08:16:32;;;;;;;14.97;4.53;;;;;;;28.98;28.46;99759.09;5051772;28;20558;-67
2023/10/14 08:19:06;;;;;;;7.47;4.20;;;;;;;29.14;28.25;99757.66;5051966;28;20664;-68
2023/10/14 08:21:36;;;;;;;5.17;3.87;;;;;;;29.32;27.74;99761.31;5052422;28;20585;-67
2023/10/14 08:24:05;;;;;;;14.23;4.03;;;;;;;29.49;27.94;99754.03;5051816;28;20204;-67
2023/10/14 08:26:34;;;;;;;10.50;4.47;;;;;;;29.65;27.72;99760.75;5052418;28;20275;-67
2023/10/14 08:29:01;;;;;;;7.00;4.07;;;;;;;29.81;27.45;99759.22;5052162;28;20196;-67
2023/10/14 08:31:29;;;;;;;6.37;3.90;;;;;;;29.79;27.35;99752.41;5051921;28;20188;-66
2023/10/14 08:33:55;;;;;;;6.33;4.37;;;;;;;29.90;27.98;99746.38;5052115;28;20200;-67
2023/10/14 08:36:22;;;;;;;6.50;3.87;;;;;;;30.01;27.65;99749.63;5052210;28;20227;-66
2023/10/14 08:38:49;;;;;;;7.10;4.00;;;;;;;30.12;26.75;99746.28;5051647;28;20672;-67
2023/10/14 08:41:16;;;;;;;7.67;3.87;;;;;;;30.24;26.87;99741.00;5052060;28;20266;-67
2023/10/14 08:43:49;;;;;;;5.37;3.90;;;;;;;30.32;26.14;99725.72;5052128;28;20277;-66
2023/10/14 08:46:18;;;;;;;9.13;4.40;;;;;;;30.46;26.28;99734.63;5052010;28;20184;-66
2023/10/14 08:48:50;;;;;;;5.37;4.33;;;;;;;30.40;26.81;99731.22;5067985;28;20253;-67
2023/10/14 08:51:19;;;;;;;6.93;4.33;;;;;;;30.49;26.57;99740.25;5072268;28;20214;-67
2023/10/14 08:53:53;;;;;;;4.87;4.20;;;;;;;30.64;26.85;99737.06;5071857;28;20200;-67
2023/10/14 08:56:22;;;;;;;11.73;3.90;;;;;;;30.70;25.96;99719.34;5071519;28;20258;-67
2023/10/14 08:58:50;;;;;;;11.57;4.27;;;;;;;30.81;26.33;99720.63;5071442;28;20253;-67
2023/10/14 09:01:19;;;;;;;14.70;4.30;;;;;;;30.73;26.66;99713.22;5071430;28;20709;-66
2023/10/14 09:03:49;;;;;;;8.30;4.37;;;;;;;30.81;25.82;99717.88;5071259;28;20249;-67
2023/10/14 09:06:17;;;;;;;7.43;4.10;;;;;;;30.80;25.73;99721.78;5071793;28;20310;-67
2023/10/14 09:08:49;;;;;;;7.70;4.20;;;;;;;30.70;25.12;99710.31;5071033;28;20203;-67
2023/10/14 09:11:33;;;;;;;8.97;3.13;;;;;;;30.55;25.63;99708.81;5071841;28;20184;-67
2023/10/14 09:14:06;;;;;;;6.27;3.80;;;;;;;30.58;25.19;99712.84;5072166;28;20229;-67
2023/10/14 09:16:34;;;;;;;4.10;3.80;;;;;;;30.41;25.21;99708.16;5071565;28;20184;-67
2023/10/14 09:19:04;;;;;;;10.70;4.50;;;;;;;30.24;26.17;99705.38;5071328;28;20655;-67
2023/10/14 09:21:32;;;;;;;14.33;3.90;;;;;;;30.17;26.41;99694.06;5071547;28;20281;-67
2023/10/14 09:24:07;;;;;;;5.97;4.17;;;;;;;30.23;26.16;99692.00;5071218;28;20303;-67
2023/10/14 09:26:38;;;;;;;12.70;3.80;;;;;;;30.38;25.84;99683.31;5071595;28;20180;-67
2023/10/14 09:29:09;;;;;;;9.00;4.47;;;;;;;30.32;25.86;99668.94;5071172;28;20234;-67
2023/10/14 09:31:38;;;;;;;10.27;3.83;;;;;;;30.53;25.83;99669.13;5071363;28;20694;-67
2023/10/14 09:34:08;;;;;;;8.50;4.67;;;;;;;30.68;26.06;99666.72;5071329;28;20200;-66
2023/10/14 09:36:38;;;;;;;7.70;4.10;;;;;;;30.75;25.64;99672.56;5071741;28;20204;-67
2023/10/14 09:39:13;;;;;;;9.20;4.23;;;;;;;30.67;25.15;99664.28;5071448;28;20188;-67
2023/10/14 09:41:40;;;;;;;7.97;3.83;;;;;;;30.61;25.88;99660.91;5071517;28;20190;-67
2023/10/14 09:44:09;;;;;;;10.40;4.37;;;;;;;30.67;25.24;99653.31;5070958;28;20273;-66
2023/10/14 09:46:40;;;;;;;7.80;3.83;;;;;;;30.72;25.44;99651.25;5071473;28;20282;-69
2023/10/14 09:49:10;;;;;;;6.53;4.47;;;;;;;30.78;25.63;99643.66;5051354;28;20185;-68
2023/10/14 09:51:38;;;;;;;8.03;3.90;;;;;;;30.78;25.12;99628.00;5051187;28;20189;-69
2023/10/14 09:54:07;;;;;;;12.37;3.93;;;;;;;30.77;25.41;99631.06;5051293;28;20258;-69
2023/10/14 09:56:40;;;;;;;3.93;3.43;;;;;;;30.77;25.56;99620.09;5051073;28;20258;-67
2023/10/14 09:59:09;;;;;;;10.80;3.93;;;;;;;30.75;25.66;99612.19;5051317;28;20189;-66
2023/10/14 10:01:35;;;;;;;6.17;3.80;;;;;;;30.79;25.17;99609.59;5050656;28;20196;-67
2023/10/14 10:04:08;;;;;;;10.40;4.13;;;;;;;30.85;25.66;99611.84;5049529;28;20224;-68
2023/10/14 10:06:49;;;;;;;14.30;4.20;;;;;;;30.40;25.55;99605.09;5051282;28;20288;-66
2023/10/14 10:09:29;;;;;;;8.70;3.70;;;;;;;30.22;26.25;99598.00;5052154;28;20234;-66
2023/10/14 10:11:59;;;;;;;9.80;4.17;;;;;;;30.32;26.38;99585.88;5055087;28;20192;-67
2023/10/14 10:14:28;;;;;;;11.43;4.03;;;;;;;30.47;26.70;99588.97;5053154;28;20196;-67
2023/10/14 10:17:02;;;;;;;11.60;4.60;;;;;;;30.07;27.10;99576.50;5054892;28;20196;-68
2023/10/14 10:20:01;;;;;;;11.07;5.57;;;;;;;30.00;27.20;99578.13;5054671;28;20637;-68
2023/10/14 10:22:41;;;;;;;15.77;7.13;;;;;;;29.85;27.23;99562.16;5054304;28;20193;-67
2023/10/14 10:25:09;;;;;;;9.80;5.90;;;;;;;29.90;27.26;99568.28;5054140;28;20185;-67
2023/10/14 10:27:36;;;;;;;9.17;5.37;;;;;;;29.75;27.41;99554.22;5054486;28;20220;-67
2023/10/14 10:30:08;;;;;;;9.20;5.23;;;;;;;29.86;27.47;99556.34;5054293;28;20220;-68
2023/10/14 10:32:34;;;;;;;17.63;5.30;;;;;;;29.89;27.08;99547.50;5054264;28;20237;-67
2023/10/14 10:35:17;;;;;;;9.73;4.50;;;;;;;29.65;27.28;99544.41;5054570;28;20624;-67
2023/10/14 10:37:57;;;;;;;12.37;5.33;;;;;;;29.85;27.59;99538.31;5054076;28;20188;-66
2023/10/14 10:40:26;;;;;;;11.37;5.00;;;;;;;30.00;27.53;99528.81;5054313;28;20193;-66
2023/10/14 10:42:55;;;;;;;9.10;5.03;;;;;;;30.02;27.18;99530.09;5053822;28;20348;-66
2023/10/14 10:45:29;;;;;;;8.83;5.33;;;;;;;29.97;27.20;99527.50;5053837;28;20192;-66
2023/10/14 10:47:59;;;;;;;9.03;4.60;;;;;;;29.97;27.41;99508.31;5063792;28;20184;-65
2023/10/14 10:50:27;;;;;;;8.50;4.60;;;;;;;29.88;27.48;99493.81;5073668;28;20204;-67
2023/10/14 10:53:16;;;;;;;7.87;4.40;;;;;;;29.92;27.04;99494.78;5073924;28;20207;-66
2023/10/14 10:55:46;;;;;;;9.33;4.03;;;;;;;29.81;27.74;99477.09;5073798;28;20271;-67
2023/10/14 10:58:13;;;;;;;11.27;4.83;;;;;;;29.76;27.76;99490.13;5073674;28;20318;-66
2023/10/14 11:00:43;;;;;;;7.20;4.10;;;;;;;29.59;27.49;99485.44;5073919;28;20261;-67
2023/10/14 11:03:13;;;;;;;7.10;4.80;;;;;;;29.58;27.83;99477.53;5074024;28;20219;-66
2023/10/14 11:05:41;;;;;;;5.23;3.97;;;;;;;29.67;27.95;99476.41;5074134;28;20220;-67
2023/10/14 11:08:09;;;;;;;10.33;4.80;;;;;;;29.73;27.61;99468.84;5073772;28;20199;-66
2023/10/14 11:10:38;;;;;;;7.47;5.07;;;;;;;29.73;27.49;99464.19;5073311;28;20196;-67
2023/10/14 11:13:07;;;;;;;10.23;4.00;;;;;;;29.76;27.51;99458.03;5073924;28;20652;-67
2023/10/14 11:15:34;;;;;;;7.77;4.20;;;;;;;29.70;28.22;99458.53;5073689;28;20196;-67
2023/10/14 11:18:03;;;;;;;4.20;3.80;;;;;;;29.64;27.63;99460.63;5073275;28;20621;-66
2023/10/14 11:20:32;;;;;;;14.73;7.10;;;;;;;29.26;27.45;99459.59;5072782;28;20664;-68
2023/10/14 11:23:00;;;;;;;6.20;5.70;;;;;;;29.17;27.54;99445.06;5073672;28;20258;-68
2023/10/14 11:25:30;;;;;;;5.80;3.60;;;;;;;29.27;27.55;99449.44;5073285;28;20254;-67
2023/10/14 11:27:57;;;;;;;8.60;3.93;;;;;;;29.27;27.76;99442.03;5073805;28;20582;-67
2023/10/14 11:30:27;;;;;;;5.60;3.27;;;;;;;29.36;27.83;99437.41;5073077;28;20199;-67
2023/10/14 11:32:55;;;;;;;4.00;3.37;;;;;;;29.49;27.79;99425.47;5073449;28;20188;-67
2023/10/14 11:35:23;;;;;;;9.73;3.90;;;;;;;29.55;28.19;99429.66;5073339;28;20214;-66
2023/10/14 11:37:51;;;;;;;8.20;3.87;;;;;;;29.53;27.55;99417.44;5073337;28;20196;-67
2023/10/14 11:40:19;;;;;;;7.23;3.47;;;;;;;29.58;27.31;99423.59;5072719;28;20203;-66
2023/10/14 11:42:46;;;;;;;6.60;3.97;;;;;;;29.61;27.42;99414.72;5072684;28;20206;-67
2023/10/14 11:45:17;;;;;;;4.47;3.30;;;;;;;29.49;27.22;99409.06;5072979;28;20257;-67
2023/10/14 11:47:44;;;;;;;4.63;3.90;;;;;;;29.43;27.66;99404.84;5064753;28;20185;-67
2023/10/14 11:50:15;;;;;;;4.33;3.93;;;;;;;29.29;27.49;99409.69;5052577;28;20193;-66